sensor_id;sensor_type;location;lat;lon;timestamp;temperature;humidity
2002;DHT22;1003;48.002;7.788;2022-09-09T00:02:08;15.40;99.90
2002;DHT22;1003;48.002;7.788;2022-09-09T00:04:53;15.40;99.90
2002;DHT22;1003;48.002;7.788;2022-09-09T00:07:37;15.50;99.90
2002;DHT22;1003;48.002;7.788;2022-09-09T00:10:17;15.40;99.90
2002;DHT22;1003;48.002;7.788;2022-09-09T00:12:57;15.40;99.90
2002;DHT22;1003;48.002;7.788;2022-09-09T00:15:37;15.30;99.90
2002;DHT22;1003;48.002;7.788;2022-09-09T00:18:17;15.10;99.90
2002;DHT22;1003;48.002;7.788;2022-09-09T00:20:56;15.10;99.90
2002;DHT22;1003;48.002;7.788;2022-09-09T00:23:32;15.00;99.90
2002;DHT22;1003;48.002;7.788;2022-09-09T00:26:05;15.10;99.90
2002;DHT22;1003;48.002;7.788;2022-09-09T00:28:41;15.10;99.90
2002;DHT22;1003;48.002;7.788;2022-09-09T00:31:19;15.10;99.90
2002;DHT22;1003;48.002;7.788;2022-09-09T00:33:51;15.10;99.90
2002;DHT22;1003;48.002;7.788;2022-09-09T00:36:22;15.20;99.90
2002;DHT22;1003;48.002;7.788;2022-09-09T00:38:57;15.10;99.90
2002;DHT22;1003;48.002;7.788;2022-09-09T00:41:35;15.10;99.90
2002;DHT22;1003;48.002;7.788;2022-09-09T00:44:25;15.00;99.90
2002;DHT22;1003;48.002;7.788;2022-09-09T00:47:09;15.00;99.90
2002;DHT22;1003;48.002;7.788;2022-09-09T00:49:57;15.10;99.90
2002;DHT22;1003;48.002;7.788;2022-09-09T00:52:34;15.00;99.90
2002;DHT22;1003;48.002;7.788;2022-09-09T00:55:12;15.10;99.90
2002;DHT22;1003;48.002;7.788;2022-09-09T00:57:44;15.30;99.90
2002;DHT22;1003;48.002;7.788;2022-09-09T01:00:18;15.30;99.90
2002;DHT22;1003;48.002;7.788;2022-09-09T01:02:55;15.30;99.90
2002;DHT22;1003;48.002;7.788;2022-09-09T01:05:54;15.20;99.90
2002;DHT22;1003;48.002;7.788;2022-09-09T01:11:43;15.10;99.90
2002;DHT22;1003;48.002;7.788;2022-09-09T01:14:29;15.10;99.90
2002;DHT22;1003;48.002;7.788;2022-09-09T01:17:11;15.00;99.90
2002;DHT22;1003;48.002;7.788;2022-09-09T01:19:54;14.80;99.90
2002;DHT22;1003;48.002;7.788;2022-09-09T01:22:35;14.70;99.90
2002;DHT22;1003;48.002;7.788;2022-09-09T01:25:28;14.60;99.90
2002;DHT22;1003;48.002;7.788;2022-09-09T01:28:02;14.70;99.90
2002;DHT22;1003;48.002;7.788;2022-09-09T01:30:37;14.80;99.90
2002;DHT22;1003;48.002;7.788;2022-09-09T01:33:07;14.80;99.90
2002;DHT22;1003;48.002;7.788;2022-09-09T01:35:45;14.90;99.90
2002;DHT22;1003;48.002;7.788;2022-09-09T01:38:17;14.90;99.90
2002;DHT22;1003;48.002;7.788;2022-09-09T01:40:45;14.90;99.90
2002;DHT22;1003;48.002;7.788;2022-09-09T01:43:13;15.00;99.90
2002;DHT22;1003;48.002;7.788;2022-09-09T01:45:42;15.00;99.90
2002;DHT22;1003;48.002;7.788;2022-09-09T01:48:13;15.00;99.90
2002;DHT22;1003;48.002;7.788;2022-09-09T01:50:40;15.10;99.90
2002;DHT22;1003;48.002;7.788;2022-09-09T01:53:07;15.10;99.90
2002;DHT22;1003;48.002;7.788;2022-09-09T01:55:38;15.10;99.90
2002;DHT22;1003;48.002;7.788;2022-09-09T01:58:19;15.10;99.90
2002;DHT22;1003;48.002;7.788;2022-09-09T02:01:03;15.20;99.90
2002;DHT22;1003;48.002;7.788;2022-09-09T02:03:38;15.20;99.90
2002;DHT22;1003;48.002;7.788;2022-09-09T02:06:14;15.20;99.90
2002;DHT22;1003;48.002;7.788;2022-09-09T02:08:55;15.30;99.90
2002;DHT22;1003;48.002;7.788;2022-09-09T02:11:26;15.30;99.90
2002;DHT22;1003;48.002;7.788;2022-09-09T02:13:58;15.30;99.90
2002;DHT22;1003;48.002;7.788;2022-09-09T02:16:32;15.30;99.90
2002;DHT22;1003;48.002;7.788;2022-09-09T02:19:08;15.30;99.90
2002;DHT22;1003;48.002;7.788;2022-09-09T02:21:40;15.20;99.90
2002;DHT22;1003;48.002;7.788;2022-09-09T02:24:11;15.20;99.90
2002;DHT22;1003;48.002;7.788;2022-09-09T02:26:44;15.20;99.90
2002;DHT22;1003;48.002;7.788;2022-09-09T02:29:19;15.30;99.90
2002;DHT22;1003;48.002;7.788;2022-09-09T02:31:49;15.30;99.90
2002;DHT22;1003;48.002;7.788;2022-09-09T02:34:22;15.30;99.90
2002;DHT22;1003;48.002;7.788;2022-09-09T02:36:54;15.20;99.90
2002;DHT22;1003;48.002;7.788;2022-09-09T02:39:23;15.20;99.90
2002;DHT22;1003;48.002;7.788;2022-09-09T02:41:51;15.20;99.90
2002;DHT22;1003;48.002;7.788;2022-09-09T02:44:19;15.20;99.90
2002;DHT22;1003;48.002;7.788;2022-09-09T02:47:02;15.20;99.90
2002;DHT22;1003;48.002;7.788;2022-09-09T02:49:47;15.20;99.90
2002;DHT22;1003;48.002;7.788;2022-09-09T02:52:34;15.10;99.90
2002;DHT22;1003;48.002;7.788;2022-09-09T02:55:16;15.10;99.90
2002;DHT22;1003;48.002;7.788;2022-09-09T02:57:51;15.10;99.90
2002;DHT22;1003;48.002;7.788;2022-09-09T03:00:25;15.10;99.90
2002;DHT22;1003;48.002;7.788;2022-09-09T03:02:54;15.10;99.90
2002;DHT22;1003;48.002;7.788;2022-09-09T03:05:21;15.10;99.90
2002;DHT22;1003;48.002;7.788;2022-09-09T03:07:49;15.10;99.90
2002;DHT22;1003;48.002;7.788;2022-09-09T03:10:17;15.20;99.90
2002;DHT22;1003;48.002;7.788;2022-09-09T03:12:44;15.20;99.90
2002;DHT22;1003;48.002;7.788;2022-09-09T03:15:11;15.30;99.90
2002;DHT22;1003;48.002;7.788;2022-09-09T03:17:41;15.30;99.90
2002;DHT22;1003;48.002;7.788;2022-09-09T03:20:09;15.30;99.90
2002;DHT22;1003;48.002;7.788;2022-09-09T03:22:36;15.30;99.90
2002;DHT22;1003;48.002;7.788;2022-09-09T03:25:03;15.40;99.90
2002;DHT22;1003;48.002;7.788;2022-09-09T03:27:31;15.40;99.90
2002;DHT22;1003;48.002;7.788;2022-09-09T03:29:58;15.40;99.90
2002;DHT22;1003;48.002;7.788;2022-09-09T03:32:29;15.40;99.90
2002;DHT22;1003;48.002;7.788;2022-09-09T03:34:58;15.40;99.90
2002;DHT22;1003;48.002;7.788;2022-09-09T03:37:25;15.50;99.90
2002;DHT22;1003;48.002;7.788;2022-09-09T03:39:52;15.50;99.90
2002;DHT22;1003;48.002;7.788;2022-09-09T03:42:21;15.60;99.90
2002;DHT22;1003;48.002;7.788;2022-09-09T03:44:48;15.60;99.90
2002;DHT22;1003;48.002;7.788;2022-09-09T03:47:17;15.60;99.90
2002;DHT22;1003;48.002;7.788;2022-09-09T03:49:45;15.50;99.90
2002;DHT22;1003;48.002;7.788;2022-09-09T03:52:14;15.40;99.90
2002;DHT22;1003;48.002;7.788;2022-09-09T03:54:41;15.30;99.90
2002;DHT22;1003;48.002;7.788;2022-09-09T03:57:09;15.20;99.90
2002;DHT22;1003;48.002;7.788;2022-09-09T03:59:36;15.10;99.90
2002;DHT22;1003;48.002;7.788;2022-09-09T04:02:04;15.00;99.90
2002;DHT22;1003;48.002;7.788;2022-09-09T04:04:31;15.10;99.90
2002;DHT22;1003;48.002;7.788;2022-09-09T04:06:58;15.20;99.90
2002;DHT22;1003;48.002;7.788;2022-09-09T04:09:26;15.40;99.90
2002;DHT22;1003;48.002;7.788;2022-09-09T04:11:53;15.40;99.90
2002;DHT22;1003;48.002;7.788;2022-09-09T04:14:21;15.50;99.90
2002;DHT22;1003;48.002;7.788;2022-09-09T04:16:48;15.60;99.90
2002;DHT22;1003;48.002;7.788;2022-09-09T04:19:15;15.60;99.90
2002;DHT22;1003;48.002;7.788;2022-09-09T04:21:42;15.60;99.90
2002;DHT22;1003;48.002;7.788;2022-09-09T04:24:10;15.60;99.90
2002;DHT22;1003;48.002;7.788;2022-09-09T04:26:38;15.60;99.90
2002;DHT22;1003;48.002;7.788;2022-09-09T04:29:05;15.70;99.90
2002;DHT22;1003;48.002;7.788;2022-09-09T04:31:33;15.80;99.90
2002;DHT22;1003;48.002;7.788;2022-09-09T04:34:01;15.70;99.90
2002;DHT22;1003;48.002;7.788;2022-09-09T04:36:31;15.70;99.90
2002;DHT22;1003;48.002;7.788;2022-09-09T04:38:58;15.70;99.90
2002;DHT22;1003;48.002;7.788;2022-09-09T04:41:27;15.70;99.90
2002;DHT22;1003;48.002;7.788;2022-09-09T04:43:55;15.80;99.90
2002;DHT22;1003;48.002;7.788;2022-09-09T04:46:23;15.90;99.90
2002;DHT22;1003;48.002;7.788;2022-09-09T04:48:50;15.90;99.90
2002;DHT22;1003;48.002;7.788;2022-09-09T04:51:19;16.00;99.90
2002;DHT22;1003;48.002;7.788;2022-09-09T04:53:46;16.10;99.90
2002;DHT22;1003;48.002;7.788;2022-09-09T04:56:15;16.20;99.90
2002;DHT22;1003;48.002;7.788;2022-09-09T04:58:43;16.30;99.90
2002;DHT22;1003;48.002;7.788;2022-09-09T05:01:14;16.40;99.90
2002;DHT22;1003;48.002;7.788;2022-09-09T05:03:42;16.40;99.90
2002;DHT22;1003;48.002;7.788;2022-09-09T05:06:12;16.50;99.90
2002;DHT22;1003;48.002;7.788;2022-09-09T05:08:42;16.50;99.90
2002;DHT22;1003;48.002;7.788;2022-09-09T05:11:14;16.50;99.90
2002;DHT22;1003;48.002;7.788;2022-09-09T05:13:44;16.50;99.90
2002;DHT22;1003;48.002;7.788;2022-09-09T05:16:14;16.50;99.90
2002;DHT22;1003;48.002;7.788;2022-09-09T05:18:42;16.60;99.90
2002;DHT22;1003;48.002;7.788;2022-09-09T05:21:10;16.60;99.90
2002;DHT22;1003;48.002;7.788;2022-09-09T05:23:38;16.60;99.90
2002;DHT22;1003;48.002;7.788;2022-09-09T05:26:05;16.70;99.90
2002;DHT22;1003;48.002;7.788;2022-09-09T05:28:36;16.80;99.90
2002;DHT22;1003;48.002;7.788;2022-09-09T05:31:04;16.80;99.90
2002;DHT22;1003;48.002;7.788;2022-09-09T05:33:35;16.90;99.90
2002;DHT22;1003;48.002;7.788;2022-09-09T05:41:02;16.90;99.90
2002;DHT22;1003;48.002;7.788;2022-09-09T06:20:56;17.00;99.90
2002;DHT22;1003;48.002;7.788;2022-09-09T06:23:28;18.70;99.90
2002;DHT22;1003;48.002;7.788;2022-09-09T06:26:03;18.80;99.90
2002;DHT22;1003;48.002;7.788;2022-09-09T06:28:31;19.40;99.90
2002;DHT22;1003;48.002;7.788;2022-09-09T06:30:59;19.40;99.90
2002;DHT22;1003;48.002;7.788;2022-09-09T06:33:30;19.20;99.90
2002;DHT22;1003;48.002;7.788;2022-09-09T06:35:57;19.20;99.90
2002;DHT22;1003;48.002;7.788;2022-09-09T06:48:24;19.50;99.90
2002;DHT22;1003;48.002;7.788;2022-09-09T06:55:59;19.00;99.90
2002;DHT22;1003;48.002;7.788;2022-09-09T07:08:25;19.70;99.90
2002;DHT22;1003;48.002;7.788;2022-09-09T07:10:53;21.30;99.90
2002;DHT22;1003;48.002;7.788;2022-09-09T07:18:19;21.00;99.90
2002;DHT22;1003;48.002;7.788;2022-09-09T07:20:53;21.20;99.90
2002;DHT22;1003;48.002;7.788;2022-09-09T07:23:21;21.30;99.90
2002;DHT22;1003;48.002;7.788;2022-09-09T07:25:49;21.40;99.90
2002;DHT22;1003;48.002;7.788;2022-09-09T07:28:19;21.40;99.90
2002;DHT22;1003;48.002;7.788;2022-09-09T07:30:53;22.00;99.90
2002;DHT22;1003;48.002;7.788;2022-09-09T07:33:21;22.30;99.90
2002;DHT22;1003;48.002;7.788;2022-09-09T07:35:49;22.80;99.90
2002;DHT22;1003;48.002;7.788;2022-09-09T07:38:16;22.30;99.90
2002;DHT22;1003;48.002;7.788;2022-09-09T07:40:44;22.90;99.90
2002;DHT22;1003;48.002;7.788;2022-09-09T07:53:04;23.50;99.90
2002;DHT22;1003;48.002;7.788;2022-09-09T07:55:32;22.10;99.90
2002;DHT22;1003;48.002;7.788;2022-09-09T07:57:59;21.80;99.90
2002;DHT22;1003;48.002;7.788;2022-09-09T08:00:26;21.40;99.90
2002;DHT22;1003;48.002;7.788;2022-09-09T08:02:55;21.20;99.90
2002;DHT22;1003;48.002;7.788;2022-09-09T08:05:22;21.70;99.90
2002;DHT22;1003;48.002;7.788;2022-09-09T08:07:49;21.90;99.90
2002;DHT22;1003;48.002;7.788;2022-09-09T08:10:19;21.70;99.90
2002;DHT22;1003;48.002;7.788;2022-09-09T08:12:46;21.40;99.90
2002;DHT22;1003;48.002;7.788;2022-09-09T08:15:14;21.60;99.90
2002;DHT22;1003;48.002;7.788;2022-09-09T08:17:41;21.70;99.90
2002;DHT22;1003;48.002;7.788;2022-09-09T08:20:10;21.70;99.90
2002;DHT22;1003;48.002;7.788;2022-09-09T08:22:38;21.60;99.90
2002;DHT22;1003;48.002;7.788;2022-09-09T08:25:05;21.60;99.90
2002;DHT22;1003;48.002;7.788;2022-09-09T08:27:34;21.70;99.90
2002;DHT22;1003;48.002;7.788;2022-09-09T08:30:01;22.10;99.90
2002;DHT22;1003;48.002;7.788;2022-09-09T08:32:28;22.30;99.90
2002;DHT22;1003;48.002;7.788;2022-09-09T08:34:55;22.50;99.90
2002;DHT22;1003;48.002;7.788;2022-09-09T08:37:24;22.60;99.90
2002;DHT22;1003;48.002;7.788;2022-09-09T08:39:51;22.50;99.90
2002;DHT22;1003;48.002;7.788;2022-09-09T08:42:35;22.20;99.90
2002;DHT22;1003;48.002;7.788;2022-09-09T08:45:22;22.20;99.90
2002;DHT22;1003;48.002;7.788;2022-09-09T08:48:08;22.30;99.90
2002;DHT22;1003;48.002;7.788;2022-09-09T08:50:49;22.30;99.90
2002;DHT22;1003;48.002;7.788;2022-09-09T08:53:21;22.10;99.90
2002;DHT22;1003;48.002;7.788;2022-09-09T08:55:57;22.00;99.90
2002;DHT22;1003;48.002;7.788;2022-09-09T08:58:28;22.10;99.90
2002;DHT22;1003;48.002;7.788;2022-09-09T09:01:17;22.30;99.90
2002;DHT22;1003;48.002;7.788;2022-09-09T09:04:00;22.30;99.90
2002;DHT22;1003;48.002;7.788;2022-09-09T09:09:21;22.50;99.90
2002;DHT22;1003;48.002;7.788;2022-09-09T09:11:58;23.00;99.90
2002;DHT22;1003;48.002;7.788;2022-09-09T09:14:28;22.80;99.90
2002;DHT22;1003;48.002;7.788;2022-09-09T09:17:01;23.00;99.90
2002;DHT22;1003;48.002;7.788;2022-09-09T09:47:58;23.00;99.90
2002;DHT22;1003;48.002;7.788;2022-09-09T09:50:28;24.30;99.90
2002;DHT22;1003;48.002;7.788;2022-09-09T09:52:56;24.30;99.90
2002;DHT22;1003;48.002;7.788;2022-09-09T09:55:28;24.30;99.90
2002;DHT22;1003;48.002;7.788;2022-09-09T09:58:02;23.80;99.90
2002;DHT22;1003;48.002;7.788;2022-09-09T10:00:30;24.00;99.90
2002;DHT22;1003;48.002;7.788;2022-09-09T10:02:59;24.00;99.90
2002;DHT22;1003;48.002;7.788;2022-09-09T10:05:28;23.80;99.90
2002;DHT22;1003;48.002;7.788;2022-09-09T10:08:04;23.90;99.90
2002;DHT22;1003;48.002;7.788;2022-09-09T10:10:47;24.20;99.90
2002;DHT22;1003;48.002;7.788;2022-09-09T10:13:27;24.20;99.90
2002;DHT22;1003;48.002;7.788;2022-09-09T10:16:15;24.00;99.90
2002;DHT22;1003;48.002;7.788;2022-09-09T10:19:04;24.00;99.90
2002;DHT22;1003;48.002;7.788;2022-09-09T10:21:56;23.80;99.90
2002;DHT22;1003;48.002;7.788;2022-09-09T10:27:55;23.10;99.90
2002;DHT22;1003;48.002;7.788;2022-09-09T10:30:47;23.00;99.90
2002;DHT22;1003;48.002;7.788;2022-09-09T10:33:30;22.50;99.90
2002;DHT22;1003;48.002;7.788;2022-09-09T10:36:11;22.40;99.90
2002;DHT22;1003;48.002;7.788;2022-09-09T10:38:41;22.30;99.90
2002;DHT22;1003;48.002;7.788;2022-09-09T10:41:32;22.30;99.90
2002;DHT22;1003;48.002;7.788;2022-09-09T10:44:17;22.40;99.90
2002;DHT22;1003;48.002;7.788;2022-09-09T10:47:21;22.80;99.90
2002;DHT22;1003;48.002;7.788;2022-09-09T10:50:29;22.80;99.90
2002;DHT22;1003;48.002;7.788;2022-09-09T10:53:18;23.60;99.90
2002;DHT22;1003;48.002;7.788;2022-09-09T10:55:59;23.60;99.90
2002;DHT22;1003;48.002;7.788;2022-09-09T10:58:35;23.80;99.90
2002;DHT22;1003;48.002;7.788;2022-09-09T11:01:13;24.00;99.90
2002;DHT22;1003;48.002;7.788;2022-09-09T11:03:46;23.70;99.90
2002;DHT22;1003;48.002;7.788;2022-09-09T11:06:25;24.10;99.90
2002;DHT22;1003;48.002;7.788;2022-09-09T11:09:00;24.20;99.90
2002;DHT22;1003;48.002;7.788;2022-09-09T11:11:34;24.50;99.90
2002;DHT22;1003;48.002;7.788;2022-09-09T11:14:14;24.10;99.90
2002;DHT22;1003;48.002;7.788;2022-09-09T11:16:50;23.50;99.90
2002;DHT22;1003;48.002;7.788;2022-09-09T11:19:26;23.10;99.90
2002;DHT22;1003;48.002;7.788;2022-09-09T11:22:00;23.00;99.90
2002;DHT22;1003;48.002;7.788;2022-09-09T11:24:34;23.10;99.90
2002;DHT22;1003;48.002;7.788;2022-09-09T11:27:09;23.30;99.90
2002;DHT22;1003;48.002;7.788;2022-09-09T11:36:11;24.10;99.90
2002;DHT22;1003;48.002;7.788;2022-09-09T11:38:51;24.40;99.90
2002;DHT22;1003;48.002;7.788;2022-09-09T11:41:20;24.40;99.90
2002;DHT22;1003;48.002;7.788;2022-09-09T11:43:49;23.80;99.90
2002;DHT22;1003;48.002;7.788;2022-09-09T11:46:20;23.80;99.90
2002;DHT22;1003;48.002;7.788;2022-09-09T11:49:01;23.70;99.90
2002;DHT22;1003;48.002;7.788;2022-09-09T11:51:31;23.70;99.90
2002;DHT22;1003;48.002;7.788;2022-09-09T11:54:02;23.70;99.90
2002;DHT22;1003;48.002;7.788;2022-09-09T11:56:49;23.80;99.90
2002;DHT22;1003;48.002;7.788;2022-09-09T11:59:20;23.80;99.90
2002;DHT22;1003;48.002;7.788;2022-09-09T12:20:22;23.40;99.90
2002;DHT22;1003;48.002;7.788;2022-09-09T12:26:27;25.20;99.90
2002;DHT22;1003;48.002;7.788;2022-09-09T12:29:06;25.00;99.90
2002;DHT22;1003;48.002;7.788;2022-09-09T12:31:49;24.60;99.90
2002;DHT22;1003;48.002;7.788;2022-09-09T12:34:34;24.10;99.90
2002;DHT22;1003;48.002;7.788;2022-09-09T12:37:26;23.60;99.90
2002;DHT22;1003;48.002;7.788;2022-09-09T12:39:59;23.20;99.90
2002;DHT22;1003;48.002;7.788;2022-09-09T12:42:29;23.40;99.90
2002;DHT22;1003;48.002;7.788;2022-09-09T12:45:00;23.30;99.90
2002;DHT22;1003;48.002;7.788;2022-09-09T12:47:38;23.30;99.90
2002;DHT22;1003;48.002;7.788;2022-09-09T12:50:17;23.30;99.90
2002;DHT22;1003;48.002;7.788;2022-09-09T12:52:49;23.20;99.90
2002;DHT22;1003;48.002;7.788;2022-09-09T12:55:20;22.90;99.90
2002;DHT22;1003;48.002;7.788;2022-09-09T12:57:51;22.70;99.90
2002;DHT22;1003;48.002;7.788;2022-09-09T13:00:21;22.30;99.90
2002;DHT22;1003;48.002;7.788;2022-09-09T13:02:51;22.40;99.90
2002;DHT22;1003;48.002;7.788;2022-09-09T13:05:22;22.30;99.90
2002;DHT22;1003;48.002;7.788;2022-09-09T13:08:00;22.60;99.90
2002;DHT22;1003;48.002;7.788;2022-09-09T13:10:31;22.40;99.90
2002;DHT22;1003;48.002;7.788;2022-09-09T13:13:01;22.30;99.90
2002;DHT22;1003;48.002;7.788;2022-09-09T13:15:29;22.30;99.90
2002;DHT22;1003;48.002;7.788;2022-09-09T13:17:59;22.00;99.90
2002;DHT22;1003;48.002;7.788;2022-09-09T13:20:29;22.00;99.90
2002;DHT22;1003;48.002;7.788;2022-09-09T13:22:58;21.60;99.90
2002;DHT22;1003;48.002;7.788;2022-09-09T13:25:26;21.30;99.90
2002;DHT22;1003;48.002;7.788;2022-09-09T13:27:57;20.90;99.90
2002;DHT22;1003;48.002;7.788;2022-09-09T13:30:29;20.70;99.90
2002;DHT22;1003;48.002;7.788;2022-09-09T13:33:17;20.60;99.90
2002;DHT22;1003;48.002;7.788;2022-09-09T13:35:50;20.30;99.90
2002;DHT22;1003;48.002;7.788;2022-09-09T13:38:22;20.20;99.90
2002;DHT22;1003;48.002;7.788;2022-09-09T13:40:57;19.70;99.90
2002;DHT22;1003;48.002;7.788;2022-09-09T13:43:28;19.30;99.90
2002;DHT22;1003;48.002;7.788;2022-09-09T13:45:59;19.60;99.90
2002;DHT22;1003;48.002;7.788;2022-09-09T13:48:28;19.90;99.90
2002;DHT22;1003;48.002;7.788;2022-09-09T13:50:59;20.10;99.90
2002;DHT22;1003;48.002;7.788;2022-09-09T13:53:29;20.20;99.90
2002;DHT22;1003;48.002;7.788;2022-09-09T13:55:57;20.90;99.90
2002;DHT22;1003;48.002;7.788;2022-09-09T13:58:25;21.30;99.90
2002;DHT22;1003;48.002;7.788;2022-09-09T14:00:53;21.70;99.90
2002;DHT22;1003;48.002;7.788;2022-09-09T14:03:20;21.60;99.90
2002;DHT22;1003;48.002;7.788;2022-09-09T14:05:47;21.40;99.90
2002;DHT22;1003;48.002;7.788;2022-09-09T14:08:21;21.10;99.90
2002;DHT22;1003;48.002;7.788;2022-09-09T14:10:52;20.80;99.90
2002;DHT22;1003;48.002;7.788;2022-09-09T14:13:20;20.90;99.90
2002;DHT22;1003;48.002;7.788;2022-09-09T14:15:48;21.20;99.90
2002;DHT22;1003;48.002;7.788;2022-09-09T14:18:16;21.30;99.90
2002;DHT22;1003;48.002;7.788;2022-09-09T14:20:44;21.40;99.90
2002;DHT22;1003;48.002;7.788;2022-09-09T14:23:11;21.40;99.90
2002;DHT22;1003;48.002;7.788;2022-09-09T14:25:42;21.40;99.90
2002;DHT22;1003;48.002;7.788;2022-09-09T14:28:13;21.30;99.90
2002;DHT22;1003;48.002;7.788;2022-09-09T14:30:41;21.30;99.90
2002;DHT22;1003;48.002;7.788;2022-09-09T14:33:11;21.40;99.90
2002;DHT22;1003;48.002;7.788;2022-09-09T14:35:39;21.60;99.90
2002;DHT22;1003;48.002;7.788;2022-09-09T14:38:07;21.60;99.90
2002;DHT22;1003;48.002;7.788;2022-09-09T14:40:36;21.60;99.90
2002;DHT22;1003;48.002;7.788;2022-09-09T14:43:04;21.60;99.90
2002;DHT22;1003;48.002;7.788;2022-09-09T14:45:35;21.60;99.90
2002;DHT22;1003;48.002;7.788;2022-09-09T14:48:03;21.60;99.90
2002;DHT22;1003;48.002;7.788;2022-09-09T14:50:30;21.40;99.90
2002;DHT22;1003;48.002;7.788;2022-09-09T14:52:58;21.40;99.90
2002;DHT22;1003;48.002;7.788;2022-09-09T14:55:25;21.10;99.90
2002;DHT22;1003;48.002;7.788;2022-09-09T14:57:54;21.10;99.90
2002;DHT22;1003;48.002;7.788;2022-09-09T15:00:24;21.00;99.90
2002;DHT22;1003;48.002;7.788;2022-09-09T15:02:53;21.10;99.90
2002;DHT22;1003;48.002;7.788;2022-09-09T15:05:21;21.20;99.90
2002;DHT22;1003;48.002;7.788;2022-09-09T15:07:49;21.30;99.90
2002;DHT22;1003;48.002;7.788;2022-09-09T15:10:17;21.30;99.90
2002;DHT22;1003;48.002;7.788;2022-09-09T15:12:44;21.30;99.90
2002;DHT22;1003;48.002;7.788;2022-09-09T15:15:11;21.40;99.90
2002;DHT22;1003;48.002;7.788;2022-09-09T15:17:39;21.40;99.90
2002;DHT22;1003;48.002;7.788;2022-09-09T15:20:08;21.50;99.90
2002;DHT22;1003;48.002;7.788;2022-09-09T15:22:36;21.60;99.90
2002;DHT22;1003;48.002;7.788;2022-09-09T15:25:04;21.50;99.90
2002;DHT22;1003;48.002;7.788;2022-09-09T15:27:33;21.50;99.90
2002;DHT22;1003;48.002;7.788;2022-09-09T15:30:00;21.10;99.90
2002;DHT22;1003;48.002;7.788;2022-09-09T15:32:27;20.80;99.90
2002;DHT22;1003;48.002;7.788;2022-09-09T15:34:55;20.60;99.90
2002;DHT22;1003;48.002;7.788;2022-09-09T15:37:24;20.50;99.90
2002;DHT22;1003;48.002;7.788;2022-09-09T15:39:51;20.20;99.90
2002;DHT22;1003;48.002;7.788;2022-09-09T15:42:18;20.20;99.90
2002;DHT22;1003;48.002;7.788;2022-09-09T15:44:45;20.20;99.90
2002;DHT22;1003;48.002;7.788;2022-09-09T15:47:12;20.10;99.90
2002;DHT22;1003;48.002;7.788;2022-09-09T15:49:40;20.10;99.90
2002;DHT22;1003;48.002;7.788;2022-09-09T15:52:09;20.20;99.90
2002;DHT22;1003;48.002;7.788;2022-09-09T15:54:38;20.10;99.90
2002;DHT22;1003;48.002;7.788;2022-09-09T15:57:07;20.00;99.90
2002;DHT22;1003;48.002;7.788;2022-09-09T15:59:38;20.00;99.90
2002;DHT22;1003;48.002;7.788;2022-09-09T16:02:06;20.00;99.90
2002;DHT22;1003;48.002;7.788;2022-09-09T16:07:02;19.90;99.90
2002;DHT22;1003;48.002;7.788;2022-09-09T16:09:31;19.70;99.90
2002;DHT22;1003;48.002;7.788;2022-09-09T16:12:04;19.50;99.90
2002;DHT22;1003;48.002;7.788;2022-09-09T16:14:35;19.60;99.90
2002;DHT22;1003;48.002;7.788;2022-09-09T16:17:02;19.30;99.90
2002;DHT22;1003;48.002;7.788;2022-09-09T16:19:30;19.20;99.90
2002;DHT22;1003;48.002;7.788;2022-09-09T16:21:58;18.90;99.90
2002;DHT22;1003;48.002;7.788;2022-09-09T16:24:25;18.50;99.90
2002;DHT22;1003;48.002;7.788;2022-09-09T16:26:54;18.30;99.90
2002;DHT22;1003;48.002;7.788;2022-09-09T16:29:23;18.20;99.90
2002;DHT22;1003;48.002;7.788;2022-09-09T16:31:53;18.00;99.90
2002;DHT22;1003;48.002;7.788;2022-09-09T16:34:21;17.90;99.90
2002;DHT22;1003;48.002;7.788;2022-09-09T16:36:48;17.80;99.90
2002;DHT22;1003;48.002;7.788;2022-09-09T16:39:17;18.00;99.90
2002;DHT22;1003;48.002;7.788;2022-09-09T16:41:47;18.10;99.90
2002;DHT22;1003;48.002;7.788;2022-09-09T16:44:16;18.10;99.90
2002;DHT22;1003;48.002;7.788;2022-09-09T16:46:47;18.00;99.90
2002;DHT22;1003;48.002;7.788;2022-09-09T16:49:17;17.90;99.90
2002;DHT22;1003;48.002;7.788;2022-09-09T16:51:46;17.70;99.90
2002;DHT22;1003;48.002;7.788;2022-09-09T16:54:15;17.60;99.90
2002;DHT22;1003;48.002;7.788;2022-09-09T16:56:45;17.50;99.90
2002;DHT22;1003;48.002;7.788;2022-09-09T16:59:14;17.50;99.90
2002;DHT22;1003;48.002;7.788;2022-09-09T17:01:44;17.50;99.90
2002;DHT22;1003;48.002;7.788;2022-09-09T17:04:16;17.40;99.90
2002;DHT22;1003;48.002;7.788;2022-09-09T17:06:47;17.40;99.90
2002;DHT22;1003;48.002;7.788;2022-09-09T17:09:16;17.40;99.90
2002;DHT22;1003;48.002;7.788;2022-09-09T17:11:44;17.40;99.90
2002;DHT22;1003;48.002;7.788;2022-09-09T17:14:15;17.40;99.90
2002;DHT22;1003;48.002;7.788;2022-09-09T17:16:45;17.30;99.90
2002;DHT22;1003;48.002;7.788;2022-09-09T17:19:14;17.20;99.90
2002;DHT22;1003;48.002;7.788;2022-09-09T17:21:41;17.20;99.90
2002;DHT22;1003;48.002;7.788;2022-09-09T17:24:08;17.10;99.90
2002;DHT22;1003;48.002;7.788;2022-09-09T17:26:37;17.00;99.90
2002;DHT22;1003;48.002;7.788;2022-09-09T17:29:05;16.90;99.90
2002;DHT22;1003;48.002;7.788;2022-09-09T17:31:33;16.80;99.90
2002;DHT22;1003;48.002;7.788;2022-09-09T17:34:02;16.70;99.90
2002;DHT22;1003;48.002;7.788;2022-09-09T17:36:31;16.60;99.90
2002;DHT22;1003;48.002;7.788;2022-09-09T17:39:01;16.60;99.90
2002;DHT22;1003;48.002;7.788;2022-09-09T17:41:30;16.50;99.90
2002;DHT22;1003;48.002;7.788;2022-09-09T17:43:58;16.40;99.90
2002;DHT22;1003;48.002;7.788;2022-09-09T17:46:28;16.40;99.90
2002;DHT22;1003;48.002;7.788;2022-09-09T17:49:00;16.50;99.90
2002;DHT22;1003;48.002;7.788;2022-09-09T17:51:31;16.60;99.90
2002;DHT22;1003;48.002;7.788;2022-09-09T17:54:01;16.60;99.90
2002;DHT22;1003;48.002;7.788;2022-09-09T17:56:31;16.60;99.90
2002;DHT22;1003;48.002;7.788;2022-09-09T17:59:01;16.60;99.90
2002;DHT22;1003;48.002;7.788;2022-09-09T18:01:32;16.80;99.90
2002;DHT22;1003;48.002;7.788;2022-09-09T18:04:04;16.70;99.90
2002;DHT22;1003;48.002;7.788;2022-09-09T18:06:35;16.60;99.90
2002;DHT22;1003;48.002;7.788;2022-09-09T18:09:05;16.60;99.90
2002;DHT22;1003;48.002;7.788;2022-09-09T18:11:35;16.70;99.90
2002;DHT22;1003;48.002;7.788;2022-09-09T18:14:07;16.60;99.90
2002;DHT22;1003;48.002;7.788;2022-09-09T18:16:37;16.70;99.90
2002;DHT22;1003;48.002;7.788;2022-09-09T18:19:09;16.70;99.90
2002;DHT22;1003;48.002;7.788;2022-09-09T18:21:39;16.60;99.90
2002;DHT22;1003;48.002;7.788;2022-09-09T18:24:08;16.40;99.90
2002;DHT22;1003;48.002;7.788;2022-09-09T18:26:36;16.30;99.90
2002;DHT22;1003;48.002;7.788;2022-09-09T18:29:06;16.20;99.90
2002;DHT22;1003;48.002;7.788;2022-09-09T19:31:18;16.10;99.90
2002;DHT22;1003;48.002;7.788;2022-09-09T19:33:47;16.10;99.90
2002;DHT22;1003;48.002;7.788;2022-09-09T19:36:16;16.20;99.90
2002;DHT22;1003;48.002;7.788;2022-09-09T19:38:45;16.30;99.90
2002;DHT22;1003;48.002;7.788;2022-09-09T19:41:16;16.40;99.90
2002;DHT22;1003;48.002;7.788;2022-09-09T19:43:44;16.60;99.90
2002;DHT22;1003;48.002;7.788;2022-09-09T19:46:14;16.70;99.90
2002;DHT22;1003;48.002;7.788;2022-09-09T19:48:44;16.70;99.90
2002;DHT22;1003;48.002;7.788;2022-09-09T19:51:15;16.70;99.90
2002;DHT22;1003;48.002;7.788;2022-09-09T19:53:46;16.80;99.90
2002;DHT22;1003;48.002;7.788;2022-09-09T19:56:15;16.80;99.90
2002;DHT22;1003;48.002;7.788;2022-09-09T19:58:45;16.80;99.90
2002;DHT22;1003;48.002;7.788;2022-09-09T20:01:19;16.80;99.90
2002;DHT22;1003;48.002;7.788;2022-09-09T20:03:49;16.80;99.90